This is the latest recevied weather packets stored in our database for station/object LA9TLA-1. If no packets are shown the sender has not sent any weather packets the latest 10 day(s).
| Time | Temp. | Humidity | Pressure | Rain* | Wind** | Luminosity | Snow |
|---|---|---|---|---|---|---|---|
| 1778194666 | 5.56° C | 17% | 1028.5 hPa | 0 mm | - | - | - |
| 1778192863 | 6.11° C | 10% | 1028.3 hPa | 0 mm | - | - | - |
| 1778191065 | 6.11° C | 10% | 1028.1 hPa | 0 mm | - | - | - |
| 1778189264 | 6.67° C | 10% | 1028 hPa | 0 mm | - | - | - |
| 1778185663 | 7.22° C | 10% | 1028 hPa | 0 mm | - | - | - |
| 1778183865 | 7.78° C | 10% | 1027.6 hPa | 0 mm | - | - | - |
| 1778182066 | 8.33° C | 10% | 1027.5 hPa | 0 mm | - | - | - |
| 1778178464 | 11.67° C | 10% | 1027 hPa | 0 mm | - | - | - |
| 1778176664 | 11.67° C | 10% | 1027 hPa | 0 mm | - | - | - |
| 1778174865 | 11.67° C | 10% | 1027.1 hPa | 0 mm | - | - | - |
| 1778171264 | 11.67° C | 10% | 1027.1 hPa | 0 mm | - | - | - |
| 1778169465 | 11.67° C | 10% | 1027 hPa | 0 mm | - | - | - |
| 1778167663 | 11.11° C | 10% | 1027 hPa | 0 mm | - | - | - |
| 1778165862 | 11.11° C | 10% | 1027.1 hPa | 0 mm | - | - | - |
| 1778164065 | 10.56° C | 10% | 1027.1 hPa | 0 mm | - | - | - |
| 1778162265 | 10.56° C | 10% | 1027.1 hPa | 0 mm | - | - | - |
| 1778160462 | 11.11° C | 10% | 1027.3 hPa | 0 mm | - | - | - |
| 1778158667 | 11.11° C | 10% | 1027.3 hPa | 0 mm | - | - | - |
| 1778156864 | 10.56° C | 10% | 1027.3 hPa | 0 mm | - | - | - |
| 1778155063 | 10.56° C | 10% | 1027.1 hPa | 0 mm | - | - | - |
| 1778153262 | 10.56° C | 10% | 1027.4 hPa | 0 mm | - | - | - |
| 1778151463 | 11.11° C | 10% | 1027.4 hPa | 0 mm | - | - | - |
| 1778149664 | 11.67° C | 10% | 1027.1 hPa | 0 mm | - | - | - |
| 1778147862 | 11.67° C | 10% | 1027.4 hPa | 0 mm | - | - | - |
| 1778142463 | 11.67° C | 10% | 1027.1 hPa | 0 mm | - | - | - |
* Rain latest hour (hover to see other rain measurements)
** Current wind speed in m/s (hover to see current wind gust speed)